Terminal Aerodrome Forecast
Issued by NWS

Home | Current Version | Previous Version | Text Only | Print | Product List | Glossary Off
Versions: 1 2 3 4 5 6 7 8 9 10 11 12 13 14 15 16 17 18 19 20 21 22 23 24 25 26 27 28 29 30 31 32 33 34 35 36

000
FTUS42 KMHX 241100 AAA
TAFOAJ
TAF AMD
KOAJ 241151Z 2412/2512 18005KT P6SM BKN025 BKN050
     FM241400 18010G15KT 3SM -RA BR OVC004
     FM241800 18015G20KT 4SM BR VCSH OVC007
     FM250600 21010G15KT P6SM OVC015
     FM250900 25010KT P6SM OVC050
      AMD LTD TO CLD VIS AND WIND=

USA.gov is the U.S. government's official web portal to all federal, state and local government web resources and services.